aviador You're here:

FAKM Decoded Metar

KIMBERLEY in SOUTH AFRICA
Report Time2018-06-25 05:20:00
UTC Time2018-06-25 06:09:39
Flight Rules vfr VFR
Wind010° at 03 kt
W.Decomp.*RWY 02: 2.9 kt HW 0.6 kt RCW
RWY 10: 1.1 kt HW 2.8 kt LCW
W.Rank010° ranks 1
Current wind is below 010° avg. (9.2)
Visibility9999 m
Phenomena:N/A
Clouds:N/A
Expected CloudBase > 3,600 ft AGL from Temp-Dew spread
CeilingNone
Temp06°C (ISA -1)
Dew Point-3°C (53% RH)
AAT2.6°C
QNH1024 hPa
Density Alt3,471 ft
Elevation3,911 ft
Report Wrong Elevation
Raw Report
SPECI FAKM 250520Z 01003KT CAVOK 06/M03 Q1024=

Extra information for FAKM:More info

Metar Taf Metar & Taf Last 4 Metars F.Rules Stats Wind Profile Meteogram Temp Stats Airport Information Weather charts Add Link Nearby VenuesMetar ALERT Operation Metar Decoded Social comments